aviador You're here:

KPBG Decoded Metar

PLATTSBURGH in NY, USA
Report Time2017-09-24 00:53:00
UTC Time2017-09-24 01:22:58
Flight Rules vfr VFR
WindCalm
Visibility9999 m
Phenomena:N/A
Clouds:N/A
Expected CloudBase > 800 ft AGL from Temp-Dew spread
CeilingNone
Temp18°C (ISA +3)
Dew Point16°C (88% RH)
QNH1017 hPa
Density Alt751 ft
Elevation236 ft
Report Wrong Elevation
Raw Report
KPBG 240053Z AUTO 00000KT 10SM CLR 18/16 A3004 RMK AO2 SLP171
T01830161=

Extra information for KPBG:More info

Metar Taf Metar & Taf Last 4 Metars F.Rules Stats Wind Profile Meteogram Temp Stats Airport Information Weather charts Add Link Nearby VenuesMetar ALERT Operation Metar Decoded Social comments

AIRNAV info for KPBG